Time;durP1;ratioP1;P1;durP2;ratioP2;P2;SDS_P1;SDS_P2;PMS_P1;PMS_P2;Temp;Humidity;BMP_temperature;BMP_pressure;BME280_temperature;BME280_humidity;BME280_pressure;Samples;Min_cycle;Max_cycle;Signal;HPM_P1;HPM_P2
2022/09/07 00:01:26;;;;;;;4.47;3.13;;;21.10;75.70;;;;;;5030714;28;20669;-68
2022/09/07 00:03:56;;;;;;;6.03;2.80;;;21.10;75.80;;;;;;5028383;28;20224;-68
2022/09/07 00:06:22;;;;;;;4.00;2.93;;;21.00;76.10;;;;;;5030554;28;20241;-70
2022/09/07 00:08:47;;;;;;;3.83;3.07;;;21.00;75.80;;;;;;5029974;28;20818;-69
2022/09/07 00:11:16;;;;;;;7.13;3.10;;;21.00;75.80;;;;;;5028853;28;20430;-69
2022/09/07 00:13:44;;;;;;;8.97;3.27;;;21.00;75.50;;;;;;5024138;28;20225;-71
2022/09/07 00:16:20;;;;;;;9.00;3.13;;;21.10;75.20;;;;;;5026758;28;20500;-69
2022/09/07 00:18:46;;;;;;;6.83;3.30;;;21.00;75.10;;;;;;5028000;28;20433;-69
2022/09/07 00:21:12;;;;;;;4.83;2.83;;;21.10;74.60;;;;;;5026199;28;20432;-69
2022/09/07 00:23:39;;;;;;;4.67;2.90;;;21.10;74.30;;;;;;5007672;28;20230;-69
2022/09/07 00:26:08;;;;;;;5.50;2.70;;;21.20;74.20;;;;;;5027165;28;21021;-71
2022/09/07 00:28:33;;;;;;;5.77;2.80;;;21.30;74.00;;;;;;5030184;28;20567;-69
2022/09/07 00:30:59;;;;;;;6.67;2.67;;;21.30;73.90;;;;;;5025461;28;20905;-68
2022/09/07 00:33:26;;;;;;;6.43;3.13;;;21.30;73.90;;;;;;5010951;28;20773;-69
2022/09/07 00:35:52;;;;;;;5.67;2.80;;;21.20;74.00;;;;;;5022962;28;20226;-69
2022/09/07 00:38:18;;;;;;;4.60;2.63;;;21.20;74.00;;;;;;5028886;28;20487;-71
2022/09/07 00:40:44;;;;;;;4.87;3.07;;;21.20;73.90;;;;;;5028341;28;20931;-72
2022/09/07 00:43:16;;;;;;;4.90;2.60;;;21.30;73.70;;;;;;5026064;28;20998;-70
2022/09/07 00:45:42;;;;;;;8.03;3.03;;;21.30;73.60;;;;;;5030072;28;20218;-70
2022/09/07 00:48:15;;;;;;;4.43;2.67;;;21.40;73.50;;;;;;5029879;28;20423;-70
2022/09/07 00:51:11;;;;;;;3.90;2.47;;;21.50;73.00;;;;;;5012104;28;20198;-70
2022/09/07 00:53:48;;;;;;;5.40;2.83;;;21.50;73.20;;;;;;5023552;28;20474;-70
2022/09/07 00:56:13;;;;;;;8.07;2.77;;;21.50;73.00;;;;;;5025862;28;20909;-69
2022/09/07 00:58:42;;;;;;;6.40;2.80;;;21.50;73.20;;;;;;5030631;28;20430;-70
2022/09/07 01:01:08;;;;;;;4.87;2.57;;;21.50;72.90;;;;;;5022062;28;20188;-70
2022/09/07 01:03:39;;;;;;;5.77;3.00;;;21.50;73.20;;;;;;5010052;28;20494;-71
2022/09/07 01:06:30;;;;;;;4.93;2.70;;;21.50;73.90;;;;;;5024131;28;20794;-69
2022/09/07 01:09:01;;;;;;;5.53;3.47;;;21.50;74.50;;;;;;5027411;28;21195;-69
2022/09/07 01:11:27;;;;;;;6.20;3.27;;;21.30;75.50;;;;;;5027428;28;20471;-69
2022/09/07 01:13:54;;;;;;;6.07;3.60;;;21.20;76.10;;;;;;5024889;28;20557;-69
2022/09/07 01:16:40;;;;;;;4.60;2.67;;;21.20;76.10;;;;;;5010944;28;20800;-69
2022/09/07 01:19:12;;;;;;;10.57;3.70;;;21.20;75.80;;;;;;5021619;28;20430;-69
2022/09/07 01:21:43;;;;;;;4.47;2.50;;;21.10;76.20;;;;;;5027475;28;20429;-70
2022/09/07 01:24:32;;;;;;;6.53;3.33;;;21.10;76.20;;;;;;5023025;28;20474;-69
2022/09/07 01:27:28;;;;;;;6.50;3.47;;;21.10;75.50;;;;;;5025814;28;20506;-70
2022/09/07 01:30:08;;;;;;;7.20;3.40;;;21.10;76.20;;;;;;5028860;28;20414;-70
2022/09/07 01:33:08;;;;;;;5.10;2.77;;;21.10;76.70;;;;;;5020700;28;20478;-69
2022/09/07 01:36:09;;;;;;;5.10;2.77;;;21.20;75.70;;;;;;5028999;28;20980;-70
2022/09/07 01:38:48;;;;;;;5.73;2.97;;;21.20;76.20;;;;;;5025731;28;20427;-72
2022/09/07 01:41:29;;;;;;;5.87;3.20;;;21.20;75.70;;;;;;5026400;28;20513;-71
2022/09/07 01:44:13;;;;;;;4.10;3.23;;;21.30;75.20;;;;;;5022247;28;20860;-71
2022/09/07 01:47:07;;;;;;;5.63;3.10;;;21.40;75.10;;;;;;5024849;28;20465;-71
2022/09/07 01:49:42;;;;;;;6.77;2.80;;;21.40;75.20;;;;;;5022644;28;20433;-71
2022/09/07 01:52:30;;;;;;;5.17;3.17;;;21.50;74.90;;;;;;5023389;28;20488;-73
2022/09/07 01:55:17;;;;;;;4.20;2.77;;;21.50;74.60;;;;;;5022995;28;20426;-70
2022/09/07 01:57:50;;;;;;;4.93;2.90;;;21.60;74.60;;;;;;5026676;28;20794;-71
2022/09/07 02:00:18;;;;;;;5.23;3.10;;;21.60;74.60;;;;;;5027398;28;20493;-72
2022/09/07 02:02:53;;;;;;;7.60;3.17;;;21.60;74.30;;;;;;5020865;28;20876;-72
2022/09/07 02:05:33;;;;;;;7.40;3.60;;;21.60;74.30;;;;;;5025380;28;20422;-73
2022/09/07 02:08:05;;;;;;;14.37;3.80;;;21.60;74.80;;;;;;5024248;28;20423;-73
2022/09/07 02:10:39;;;;;;;5.73;3.20;;;21.60;75.10;;;;;;5025707;28;20416;-75
2022/09/07 02:13:08;;;;;;;7.47;3.37;;;21.70;74.80;;;;;;5008829;28;20956;-74
2022/09/07 02:15:39;;;;;;;6.87;3.80;;;21.60;74.90;;;;;;5024520;28;20426;-74
2022/09/07 02:18:07;;;;;;;7.03;3.70;;;21.60;75.10;;;;;;5021937;28;20479;-71
2022/09/07 02:20:36;;;;;;;5.63;3.70;;;21.60;75.20;;;;;;5005630;28;20431;-71
2022/09/07 02:23:10;;;;;;;5.17;3.20;;;21.60;75.20;;;;;;5005399;28;20520;-73
2022/09/07 02:25:40;;;;;;;6.07;3.00;;;21.50;75.80;;;;;;5012832;28;20981;-72
2022/09/07 02:28:19;;;;;;;6.57;3.33;;;21.60;75.70;;;;;;5028908;28;20432;-72
2022/09/07 02:30:45;;;;;;;6.10;3.60;;;21.70;75.70;;;;;;5029081;28;20501;-72
2022/09/07 02:33:10;;;;;;;6.50;3.27;;;21.70;75.80;;;;;;5028861;28;20554;-70
2022/09/07 02:35:36;;;;;;;5.87;3.23;;;21.70;75.80;;;;;;5028108;28;20195;-70
2022/09/07 02:38:04;;;;;;;8.40;3.20;;;21.70;75.90;;;;;;5012890;28;20639;-71
2022/09/07 02:40:30;;;;;;;8.10;3.60;;;21.60;76.10;;;;;;5026014;28;20490;-72
2022/09/07 02:43:01;;;;;;;5.30;3.00;;;21.60;76.50;;;;;;5020482;28;20504;-74
2022/09/07 02:45:49;;;;;;;9.40;3.50;;;21.60;77.00;;;;;;5023452;28;20462;-72
2022/09/07 02:48:43;;;;;;;10.50;3.97;;;21.60;77.00;;;;;;5024176;28;20967;-70
2022/09/07 02:51:39;;;;;;;6.50;3.80;;;21.30;78.00;;;;;;5026565;28;20422;-72
2022/09/07 02:54:36;;;;;;;7.00;3.87;;;21.10;79.00;;;;;;5022914;28;20812;-70
2022/09/07 02:57:45;;;;;;;10.43;4.00;;;21.10;79.20;;;;;;5028442;28;20427;-72
2022/09/07 03:00:19;;;;;;;5.20;3.43;;;21.10;79.30;;;;;;5027355;28;20422;-71
2022/09/07 03:03:03;;;;;;;6.63;3.70;;;21.20;79.50;;;;;;5022183;28;20907;-72
2022/09/07 03:05:40;;;;;;;8.00;3.40;;;21.30;79.20;;;;;;5027843;28;20423;-69
2022/09/07 03:08:19;;;;;;;7.17;4.00;;;21.30;79.20;;;;;;5024526;28;20912;-68
2022/09/07 03:10:46;;;;;;;8.47;3.90;;;21.30;79.50;;;;;;5030193;28;20418;-69
2022/09/07 03:13:23;;;;;;;7.17;3.93;;;21.30;79.30;;;;;;5028675;28;20457;-69
2022/09/07 03:15:49;;;;;;;8.30;3.80;;;21.30;79.60;;;;;;5031018;28;20462;-69
2022/09/07 03:18:15;;;;;;;9.03;3.30;;;21.30;79.50;;;;;;5032221;28;20453;-68
2022/09/07 03:20:40;;;;;;;8.53;3.70;;;21.40;79.30;;;;;;5030565;28;20714;-69
2022/09/07 03:23:06;;;;;;;5.87;3.57;;;21.40;79.00;;;;;;5019179;28;20216;-68
2022/09/07 03:25:31;;;;;;;11.43;4.33;;;21.40;78.90;;;;;;5035810;28;20185;-70
2022/09/07 03:27:57;;;;;;;5.23;3.37;;;21.50;78.60;;;;;;5042152;28;20231;-69
2022/09/07 03:30:23;;;;;;;8.33;3.53;;;21.50;78.70;;;;;;5038757;28;20198;-70
2022/09/07 03:32:48;;;;;;;5.20;3.60;;;21.40;78.90;;;;;;5040382;28;20216;-70
2022/09/07 03:35:15;;;;;;;8.73;3.73;;;21.30;79.00;;;;;;5026475;28;20190;-69
2022/09/07 03:37:41;;;;;;;6.30;3.80;;;21.40;79.30;;;;;;5029719;28;20195;-71
2022/09/07 03:40:09;;;;;;;6.77;3.87;;;21.30;79.20;;;;;;5026087;28;20423;-71
2022/09/07 03:42:36;;;;;;;9.93;3.67;;;21.30;79.50;;;;;;5027234;28;20521;-69
2022/09/07 03:45:01;;;;;;;7.00;3.53;;;21.30;79.50;;;;;;5013481;28;20453;-69
2022/09/07 03:47:27;;;;;;;8.63;3.70;;;21.20;79.70;;;;;;5029376;28;20423;-70
2022/09/07 03:49:53;;;;;;;7.67;3.80;;;21.20;79.90;;;;;;5007508;28;20187;-69
2022/09/07 03:52:18;;;;;;;9.87;3.73;;;21.10;80.20;;;;;;5023526;28;20221;-69
2022/09/07 03:54:44;;;;;;;9.17;3.37;;;21.10;80.60;;;;;;5020229;28;20194;-70
2022/09/07 03:57:10;;;;;;;7.50;3.70;;;20.90;81.20;;;;;;5033070;28;20194;-70
2022/09/07 03:59:36;;;;;;;5.90;4.17;;;20.70;81.90;;;;;;5032921;28;20185;-70
2022/09/07 04:02:02;;;;;;;6.40;3.90;;;20.50;83.00;;;;;;5029201;28;20614;-68
2022/09/07 04:04:28;;;;;;;4.63;3.53;;;20.50;83.30;;;;;;5026097;28;20348;-72
2022/09/07 04:06:53;;;;;;;5.30;3.83;;;20.50;83.00;;;;;;5032189;28;20417;-71
2022/09/07 04:09:19;;;;;;;10.13;4.43;;;20.30;83.80;;;;;;5011120;28;20191;-71
2022/09/07 04:11:45;;;;;;;6.47;3.70;;;20.20;84.00;;;;;;5030588;28;20228;-71
2022/09/07 04:14:11;;;;;;;7.00;3.97;;;20.20;84.60;;;;;;5023491;28;20194;-70
2022/09/07 04:16:37;;;;;;;5.40;4.17;;;20.20;84.90;;;;;;5029783;28;20231;-71
2022/09/07 04:19:03;;;;;;;11.47;4.90;;;20.30;84.40;;;;;;5028659;28;20426;-72
2022/09/07 04:21:31;;;;;;;8.40;4.20;;;20.40;84.30;;;;;;5028588;28;20773;-71
2022/09/07 04:23:57;;;;;;;12.50;4.23;;;20.30;83.80;;;;;;5023666;28;20472;-71
2022/09/07 04:26:26;;;;;;;6.33;4.00;;;20.20;84.30;;;;;;5027545;28;20978;-71
2022/09/07 04:28:53;;;;;;;9.30;4.27;;;20.10;84.90;;;;;;5029546;28;20960;-71
2022/09/07 04:31:19;;;;;;;9.60;4.30;;;20.10;85.00;;;;;;5027311;28;20440;-71
2022/09/07 04:33:47;;;;;;;7.50;3.97;;;20.10;85.00;;;;;;5023555;28;20473;-70
2022/09/07 04:36:13;;;;;;;8.77;4.60;;;20.10;85.20;;;;;;5029690;28;20487;-71
2022/09/07 04:38:39;;;;;;;9.30;4.53;;;20.00;85.60;;;;;;5029938;28;20856;-72
2022/09/07 04:41:08;;;;;;;8.50;3.70;;;20.00;85.70;;;;;;5026887;28;20458;-71
2022/09/07 04:43:36;;;;;;;7.97;4.80;;;20.10;85.70;;;;;;5023661;28;20688;-70
2022/09/07 04:46:07;;;;;;;4.53;3.73;;;20.20;85.50;;;;;;5028413;28;20448;-73
2022/09/07 04:48:33;;;;;;;7.47;4.27;;;20.10;85.20;;;;;;5026902;28;20432;-72
2022/09/07 04:51:04;;;;;;;6.20;4.00;;;20.10;85.30;;;;;;5026870;28;20437;-72
2022/09/07 04:53:30;;;;;;;8.00;4.93;;;20.10;85.20;;;;;;5024510;28;20517;-71
2022/09/07 04:55:59;;;;;;;8.23;4.30;;;20.10;85.00;;;;;;5029811;28;20442;-72
2022/09/07 04:58:25;;;;;;;11.40;4.50;;;20.00;85.50;;;;;;5028785;28;20201;-72
2022/09/07 05:00:51;;;;;;;9.10;4.20;;;20.00;85.60;;;;;;5029796;28;20801;-72
2022/09/07 05:03:17;;;;;;;7.00;4.30;;;20.00;85.60;;;;;;5023969;28;20471;-71
2022/09/07 05:05:43;;;;;;;6.37;4.07;;;20.00;86.00;;;;;;5011245;28;20220;-71
2022/09/07 05:08:10;;;;;;;7.43;3.93;;;19.90;86.20;;;;;;5012834;28;20182;-70
2022/09/07 05:10:35;;;;;;;8.93;4.20;;;20.00;86.20;;;;;;5029125;28;20473;-72
2022/09/07 05:13:01;;;;;;;9.63;5.17;;;20.00;86.00;;;;;;5022349;28;20494;-73
2022/09/07 05:15:29;;;;;;;6.80;4.47;;;19.90;86.20;;;;;;5029164;28;20193;-73
2022/09/07 05:17:55;;;;;;;7.87;5.13;;;19.80;86.90;;;;;;5022788;28;20823;-71
2022/09/07 05:20:21;;;;;;;8.67;4.37;;;19.70;87.40;;;;;;5027177;28;20823;-72
2022/09/07 05:22:47;;;;;;;8.60;4.77;;;19.60;87.80;;;;;;5017226;28;20472;-72
2022/09/07 05:25:12;;;;;;;8.30;4.93;;;19.70;87.80;;;;;;5024322;28;20952;-72
2022/09/07 05:27:38;;;;;;;10.53;4.93;;;19.70;87.80;;;;;;5027900;28;20523;-72
2022/09/07 05:30:04;;;;;;;7.07;4.33;;;19.80;87.80;;;;;;5027816;28;20560;-72
2022/09/07 05:32:30;;;;;;;8.33;5.23;;;19.90;87.40;;;;;;5007222;28;20320;-74
2022/09/07 05:34:55;;;;;;;7.83;4.57;;;19.90;87.10;;;;;;5023617;28;20950;-72
2022/09/07 05:37:21;;;;;;;6.63;3.80;;;19.90;87.30;;;;;;5023894;28;20246;-71
2022/09/07 05:39:46;;;;;;;7.40;4.53;;;19.90;87.40;;;;;;5026178;28;20185;-71
2022/09/07 05:42:12;;;;;;;7.63;4.27;;;20.00;87.10;;;;;;5007651;28;20241;-71
2022/09/07 05:44:38;;;;;;;9.13;5.03;;;20.00;86.80;;;;;;5027031;28;20203;-72
2022/09/07 05:47:04;;;;;;;8.07;4.60;;;20.10;86.50;;;;;;5027976;28;20182;-70
2022/09/07 05:49:31;;;;;;;7.80;4.63;;;20.10;86.30;;;;;;5026451;28;20719;-71
2022/09/07 05:51:56;;;;;;;9.00;4.77;;;20.10;86.30;;;;;;5024598;28;20192;-71
2022/09/07 05:54:22;;;;;;;11.63;6.13;;;20.10;86.50;;;;;;5025302;28;20523;-72
2022/09/07 05:56:48;;;;;;;6.63;4.50;;;20.10;86.20;;;;;;5029734;28;20190;-72
2022/09/07 05:59:13;;;;;;;8.17;4.50;;;20.00;86.80;;;;;;5036061;28;20200;-72
2022/09/07 06:01:39;;;;;;;5.80;4.40;;;20.20;86.80;;;;;;5014249;28;20213;-72
2022/09/07 06:04:05;;;;;;;8.00;4.50;;;20.20;86.60;;;;;;5026019;28;20296;-71
2022/09/07 06:06:31;;;;;;;7.60;5.07;;;20.30;86.50;;;;;;5029462;28;20194;-72
2022/09/07 06:08:57;;;;;;;13.63;5.17;;;20.20;86.30;;;;;;5029726;28;20551;-72
2022/09/07 06:11:24;;;;;;;8.50;5.20;;;20.20;86.50;;;;;;5027426;28;20544;-71
2022/09/07 06:13:50;;;;;;;11.87;5.30;;;20.30;86.30;;;;;;5022460;28;20468;-71
2022/09/07 06:16:17;;;;;;;9.60;5.60;;;20.40;86.50;;;;;;5029535;28;20427;-71
2022/09/07 06:18:45;;;;;;;8.70;4.27;;;20.70;85.60;;;;;;5029065;28;20484;-71
2022/09/07 06:21:15;;;;;;;7.30;4.47;;;20.80;84.70;;;;;;5030097;28;20470;-71
2022/09/07 06:23:42;;;;;;;9.50;4.47;;;21.00;84.00;;;;;;5022554;28;20569;-71
2022/09/07 06:26:08;;;;;;;7.80;4.37;;;21.10;83.60;;;;;;5029300;28;20915;-72
2022/09/07 06:28:39;;;;;;;7.43;4.50;;;21.20;83.30;;;;;;5032422;28;20424;-72
2022/09/07 06:31:06;;;;;;;7.57;4.77;;;21.20;83.10;;;;;;5028543;28;20221;-71
2022/09/07 06:33:32;;;;;;;8.07;4.93;;;21.20;82.70;;;;;;5024589;28;20961;-71
2022/09/07 06:36:00;;;;;;;10.50;4.03;;;21.30;82.70;;;;;;5031677;28;20426;-72
2022/09/07 06:38:32;;;;;;;11.73;4.97;;;21.30;81.50;;;;;;5028531;28;20459;-72
2022/09/07 06:41:11;;;;;;;9.47;4.40;;;21.30;81.40;;;;;;5015896;28;20444;-70
2022/09/07 06:43:37;;;;;;;6.97;4.20;;;21.30;81.50;;;;;;5023746;28;20493;-71
2022/09/07 06:46:04;;;;;;;7.10;4.37;;;21.40;81.40;;;;;;5030431;28;20443;-71
2022/09/07 06:48:30;;;;;;;6.47;4.77;;;21.60;80.80;;;;;;5033002;28;20516;-71
2022/09/07 06:51:02;;;;;;;7.00;4.63;;;21.60;80.80;;;;;;5029531;28;20419;-72
2022/09/07 06:53:33;;;;;;;6.93;4.50;;;21.70;80.90;;;;;;5024584;28;20469;-71
2022/09/07 06:56:00;;;;;;;10.17;4.27;;;21.80;80.60;;;;;;5027170;28;20510;-72
2022/09/07 06:58:26;;;;;;;7.43;4.07;;;21.90;80.30;;;;;;5033392;28;20464;-71
2022/09/07 07:00:52;;;;;;;7.30;3.93;;;22.10;79.20;;;;;;5026493;28;20455;-71
2022/09/07 07:03:18;;;;;;;9.97;4.47;;;22.20;77.70;;;;;;5026430;28;20840;-72
2022/09/07 07:05:54;;;;;;;10.40;4.50;;;22.20;77.40;;;;;;5023220;28;20440;-72
2022/09/07 07:08:22;;;;;;;7.53;4.27;;;22.20;77.40;;;;;;5029657;28;20955;-72
2022/09/07 07:10:48;;;;;;;7.53;4.60;;;22.10;78.00;;;;;;5021249;28;21012;-71
2022/09/07 07:13:14;;;;;;;9.37;4.17;;;22.20;78.00;;;;;;5025389;28;20809;-72
2022/09/07 07:15:40;;;;;;;9.93;4.00;;;22.20;77.40;;;;;;5027869;28;20431;-71
2022/09/07 07:18:06;;;;;;;6.10;3.57;;;22.20;77.80;;;;;;5030800;28;20791;-72
2022/09/07 07:20:35;;;;;;;9.00;3.90;;;22.30;76.80;;;;;;5028075;28;20189;-71
2022/09/07 07:23:00;;;;;;;6.57;3.77;;;22.40;77.10;;;;;;5026127;28;20478;-72
2022/09/07 07:25:26;;;;;;;10.00;4.30;;;22.40;76.70;;;;;;5027216;28;20460;-71
2022/09/07 07:27:52;;;;;;;10.27;4.10;;;22.50;76.40;;;;;;5036634;28;20178;-71
2022/09/07 07:30:18;;;;;;;10.97;4.10;;;22.60;76.40;;;;;;5023150;28;20194;-75
2022/09/07 07:32:45;;;;;;;9.73;3.83;;;22.60;76.20;;;;;;5041587;28;20293;-74
2022/09/07 07:35:12;;;;;;;8.70;4.10;;;22.70;75.80;;;;;;5025596;28;20428;-76
2022/09/07 07:37:37;;;;;;;6.57;3.50;;;22.70;75.80;;;;;;5009999;28;21688;-74
2022/09/07 07:40:07;;;;;;;9.57;3.90;;;22.70;75.50;;;;;;5031424;28;20481;-74
2022/09/07 07:42:34;;;;;;;8.10;4.57;;;22.80;75.50;;;;;;5008080;28;20665;-74
2022/09/07 07:45:00;;;;;;;8.63;4.23;;;22.80;75.40;;;;;;5026619;28;21141;-75
2022/09/07 07:47:26;;;;;;;6.37;3.80;;;22.90;75.40;;;;;;5032844;28;20420;-75
2022/09/07 07:49:52;;;;;;;8.63;3.93;;;23.00;74.50;;;;;;5030753;28;20426;-75
2022/09/07 07:52:17;;;;;;;8.43;3.97;;;23.00;74.80;;;;;;5027786;28;20242;-74
2022/09/07 07:54:44;;;;;;;9.03;3.73;;;23.20;74.60;;;;;;5025964;28;20213;-74
2022/09/07 07:57:10;;;;;;;12.77;3.77;;;23.30;74.00;;;;;;5027187;28;20310;-75
2022/09/07 07:59:36;;;;;;;8.73;4.37;;;23.30;73.90;;;;;;5031965;28;20418;-73
2022/09/07 08:02:03;;;;;;;14.90;4.50;;;23.40;73.70;;;;;;5025446;28;20971;-74
2022/09/07 08:04:31;;;;;;;18.10;4.00;;;23.50;73.00;;;;;;5026459;28;20477;-75
2022/09/07 08:06:56;;;;;;;11.60;4.23;;;23.50;72.90;;;;;;5026900;28;20626;-74
2022/09/07 08:09:22;;;;;;;7.30;4.37;;;23.60;72.90;;;;;;5030296;28;20510;-74
2022/09/07 08:11:48;;;;;;;11.20;4.27;;;23.70;72.40;;;;;;5022744;28;20192;-75
2022/09/07 08:14:13;;;;;;;9.50;4.00;;;23.80;71.80;;;;;;5024190;28;20669;-73
2022/09/07 08:16:41;;;;;;;10.40;4.20;;;23.90;71.70;;;;;;5013835;28;20632;-75
2022/09/07 08:19:07;;;;;;;12.07;4.13;;;23.90;71.80;;;;;;5023857;28;20658;-74
2022/09/07 08:21:33;;;;;;;9.27;3.97;;;23.90;71.80;;;;;;5031044;28;20438;-74
2022/09/07 08:23:59;;;;;;;8.40;3.87;;;24.00;71.40;;;;;;5010618;28;20232;-72
2022/09/07 08:26:25;;;;;;;7.80;4.70;;;23.90;70.80;;;;;;5013532;28;20216;-73
2022/09/07 08:28:50;;;;;;;10.03;4.17;;;23.90;71.70;;;;;;5012298;28;20277;-71
2022/09/07 08:31:16;;;;;;;10.50;3.63;;;23.90;71.70;;;;;;5031490;28;20515;-70
2022/09/07 08:33:42;;;;;;;6.67;3.40;;;24.00;71.30;;;;;;5022901;28;20211;-70
2022/09/07 08:36:14;;;;;;;7.90;4.27;;;24.10;71.00;;;;;;5030920;28;20195;-70
2022/09/07 08:38:40;;;;;;;6.33;3.67;;;24.10;71.00;;;;;;5026509;28;20345;-74
2022/09/07 08:41:39;;;;;;;6.43;4.03;;;24.10;71.00;;;;;;5013725;28;20434;-72
2022/09/07 08:44:11;;;;;;;9.37;3.93;;;24.10;70.80;;;;;;5022953;28;20503;-69
2022/09/07 08:46:57;;;;;;;6.87;4.03;;;24.20;70.50;;;;;;5031027;28;20833;-70
2022/09/07 08:49:51;;;;;;;6.87;4.03;;;24.20;70.20;;;;;;5025584;28;20415;-72
2022/09/07 08:52:26;;;;;;;5.83;3.60;;;24.40;69.70;;;;;;5027894;28;20463;-70
2022/09/07 08:55:05;;;;;;;7.73;4.07;;;24.30;69.90;;;;;;5026357;28;20418;-69
2022/09/07 08:57:34;;;;;;;7.23;4.47;;;24.50;69.10;;;;;;5010526;28;20459;-71
2022/09/07 09:00:12;;;;;;;12.40;4.77;;;24.50;69.20;;;;;;5026666;28;20861;-69
2022/09/07 09:02:38;;;;;;;8.60;3.57;;;24.60;69.10;;;;;;5007231;28;20461;-71
2022/09/07 09:05:13;;;;;;;7.10;4.20;;;24.50;69.40;;;;;;5035785;28;20477;-70
2022/09/07 09:07:49;;;;;;;8.97;4.07;;;24.60;69.20;;;;;;5022564;28;20184;-71
2022/09/07 09:10:44;;;;;;;9.60;4.27;;;24.60;68.80;;;;;;5027551;28;20415;-73
2022/09/07 09:13:18;;;;;;;6.60;3.53;;;24.70;68.90;;;;;;5012001;28;21071;-69
2022/09/07 09:16:01;;;;;;;10.50;4.00;;;24.80;67.90;;;;;;5030101;28;20408;-70
2022/09/07 09:18:53;;;;;;;9.10;4.73;;;24.70;68.30;;;;;;5026670;28;20455;-71
2022/09/07 09:21:23;;;;;;;9.60;4.00;;;24.70;67.90;;;;;;5009102;28;20464;-69
2022/09/07 09:23:52;;;;;;;10.50;4.27;;;24.80;67.90;;;;;;5024406;28;21005;-71
2022/09/07 09:26:26;;;;;;;6.03;3.80;;;24.80;68.20;;;;;;5012138;28;20424;-70
2022/09/07 09:28:52;;;;;;;9.20;4.00;;;24.80;68.30;;;;;;5030844;28;20424;-70
2022/09/07 09:31:25;;;;;;;5.87;4.13;;;24.90;68.20;;;;;;5028361;28;20473;-71
2022/09/07 09:34:20;;;;;;;9.50;3.90;;;24.80;67.90;;;;;;5026549;28;20219;-70
2022/09/07 09:36:47;;;;;;;5.80;3.73;;;24.80;67.90;;;;;;4947860;29;20496;-70
2022/09/07 09:39:33;;;;;;;8.23;4.37;;;25.00;68.00;;;;;;4950600;29;20503;-72
2022/09/07 09:42:22;;;;;;;9.00;4.23;;;25.20;67.70;;;;;;4949456;28;20460;-69
2022/09/07 09:44:49;;;;;;;10.90;4.70;;;25.20;66.90;;;;;;4922599;29;20459;-72
2022/09/07 09:47:31;;;;;;;9.63;4.20;;;25.20;66.60;;;;;;4950311;29;20579;-72
2022/09/07 09:50:19;;;;;;;7.50;4.13;;;25.30;66.70;;;;;;4935688;29;20429;-72
2022/09/07 09:52:45;;;;;;;7.50;4.67;;;25.50;66.30;;;;;;4951518;28;20515;-73
2022/09/07 09:55:37;;;;;;;9.87;4.23;;;25.60;66.30;;;;;;4948219;28;20433;-74
2022/09/07 09:58:11;;;;;;;6.90;3.70;;;25.60;65.40;;;;;;4945657;28;20429;-72
2022/09/07 10:00:38;;;;;;;6.60;3.40;;;25.60;65.60;;;;;;4949908;29;21059;-71
2022/09/07 10:03:06;;;;;;;6.80;3.63;;;25.70;65.60;;;;;;4946497;28;20890;-75
2022/09/07 10:05:36;;;;;;;7.33;3.67;;;25.80;65.30;;;;;;4949326;29;20543;-74
2022/09/07 10:08:05;;;;;;;9.83;4.07;;;25.50;65.30;;;;;;4949838;29;20420;-72
2022/09/07 10:10:31;;;;;;;8.13;4.33;;;25.40;65.70;;;;;;4949891;29;20489;-73
2022/09/07 10:12:57;;;;;;;7.37;4.53;;;25.50;65.60;;;;;;4975208;28;20471;-72
2022/09/07 10:15:34;;;;;;;6.13;3.93;;;25.60;64.70;;;;;;5026808;28;20186;-72
2022/09/07 10:18:04;;;;;;;6.00;3.70;;;25.70;65.40;;;;;;5010167;28;20519;-73
2022/09/07 10:20:33;;;;;;;6.67;4.00;;;25.90;64.50;;;;;;5012124;28;20441;-74
2022/09/07 10:22:59;;;;;;;7.67;4.37;;;25.80;64.50;;;;;;5022631;28;20548;-72
2022/09/07 10:25:36;;;;;;;7.00;4.07;;;25.80;64.80;;;;;;5028478;28;20443;-73
2022/09/07 10:28:20;;;;;;;8.00;4.10;;;25.80;65.10;;;;;;5029501;28;20518;-72
2022/09/07 10:31:07;;;;;;;7.70;4.33;;;25.90;65.40;;;;;;5026793;28;20451;-73
2022/09/07 10:33:45;;;;;;;7.70;4.07;;;25.90;65.10;;;;;;5022571;28;20461;-71
2022/09/07 10:36:50;;;;;;;8.17;4.40;;;25.90;65.60;;;;;;5021887;28;20457;-74
2022/09/07 10:39:30;;;;;;;8.90;4.67;;;26.00;65.60;;;;;;5022750;28;20946;-75
2022/09/07 10:42:08;;;;;;;6.97;4.17;;;26.00;65.10;;;;;;5021219;28;20425;-75
2022/09/07 10:45:02;;;;;;;6.77;3.90;;;26.00;65.00;;;;;;5023227;28;20610;-73
2022/09/07 10:48:02;;;;;;;11.70;4.73;;;26.20;65.10;;;;;;5029183;28;20418;-73
2022/09/07 10:50:43;;;;;;;7.33;3.90;;;26.10;65.00;;;;;;5021895;28;20440;-74
2022/09/07 10:53:14;;;;;;;6.40;4.23;;;26.00;64.70;;;;;;5019563;28;20847;-74
2022/09/07 10:55:47;;;;;;;8.00;4.23;;;26.00;65.10;;;;;;5018106;28;20954;-72
2022/09/07 10:58:36;;;;;;;11.40;4.40;;;26.10;65.30;;;;;;5026189;28;20412;-73
2022/09/07 11:01:29;;;;;;;8.87;5.20;;;26.10;65.70;;;;;;5029000;28;20412;-73
2022/09/07 11:04:13;;;;;;;13.77;4.80;;;25.80;66.30;;;;;;5023350;28;20470;-72
2022/09/07 11:06:41;;;;;;;7.77;4.80;;;25.70;67.20;;;;;;5028649;28;20414;-71
2022/09/07 11:09:25;;;;;;;8.80;4.80;;;25.70;67.30;;;;;;5025951;28;20426;-72
2022/09/07 11:12:07;;;;;;;7.27;4.77;;;25.70;67.70;;;;;;5026605;28;20517;-73
2022/09/07 11:14:41;;;;;;;13.20;4.93;;;25.60;67.90;;;;;;5005433;28;20507;-73
2022/09/07 11:17:15;;;;;;;7.97;4.70;;;25.40;68.50;;;;;;5027462;28;20429;-73
2022/09/07 11:19:56;;;;;;;7.00;4.40;;;25.40;68.50;;;;;;5030252;28;20924;-72
2022/09/07 11:22:56;;;;;;;7.30;4.80;;;25.70;68.30;;;;;;5030750;28;20529;-73
2022/09/07 11:25:28;;;;;;;8.07;4.60;;;26.00;67.60;;;;;;4996275;28;20422;-72
2022/09/07 11:28:00;;;;;;;9.77;4.43;;;26.40;66.30;;;;;;5038356;28;21034;-74
2022/09/07 11:30:30;;;;;;;13.03;5.10;;;26.90;65.40;;;;;;5039642;28;20431;-74
2022/09/07 11:33:08;;;;;;;9.90;3.80;;;27.20;63.40;;;;;;5035075;28;20478;-75
2022/09/07 11:35:43;;;;;;;8.60;4.50;;;27.50;63.10;;;;;;5027770;28;20452;-73
2022/09/07 11:38:20;;;;;;;7.90;4.33;;;27.80;62.00;;;;;;5024914;28;20416;-72
2022/09/07 11:41:15;;;;;;;10.30;4.33;;;27.50;61.60;;;;;;5027354;28;20499;-73
2022/09/07 11:43:48;;;;;;;8.27;4.40;;;28.10;60.00;;;;;;4986382;28;20486;-71
2022/09/07 11:46:20;;;;;;;6.80;4.47;;;28.10;60.00;;;;;;5031734;28;20521;-73
2022/09/07 11:48:52;;;;;;;8.37;4.10;;;27.90;60.10;;;;;;5032140;28;20420;-73
2022/09/07 11:51:43;;;;;;;9.30;4.20;;;28.00;60.10;;;;;;5031530;28;20980;-73
2022/09/07 11:54:18;;;;;;;9.73;4.57;;;27.80;60.60;;;;;;5020354;28;20809;-72
2022/09/07 11:56:49;;;;;;;6.20;4.03;;;27.90;60.60;;;;;;5030155;28;20927;-72
2022/09/07 11:59:41;;;;;;;6.80;4.53;;;28.20;59.60;;;;;;5030226;28;20427;-73
2022/09/07 12:02:10;;;;;;;3.63;3.00;;;29.00;58.20;;;;;;5027854;28;20467;-73
2022/09/07 12:04:47;;;;;;;9.27;3.63;;;29.90;55.00;;;;;;5028845;28;20472;-73
2022/09/07 12:07:28;;;;;;;6.70;3.70;;;30.50;53.80;;;;;;5032225;28;20466;-74
2022/09/07 12:09:53;;;;;;;7.50;3.50;;;30.60;52.60;;;;;;5024773;28;20428;-74
2022/09/07 12:12:42;;;;;;;8.03;3.93;;;30.50;52.80;;;;;;5027635;28;20971;-73
2022/09/07 12:15:53;;;;;;;9.03;4.37;;;30.70;53.40;;;;;;5029821;28;20193;-74
2022/09/07 12:18:54;;;;;;;8.67;3.20;;;30.90;52.00;;;;;;5022321;28;20878;-73
2022/09/07 12:21:31;;;;;;;8.23;4.33;;;31.20;50.60;;;;;;5025656;28;20574;-72
2022/09/07 12:23:57;;;;;;;6.03;3.53;;;31.20;50.50;;;;;;5022743;28;20789;-74
2022/09/07 12:26:34;;;;;;;6.53;4.13;;;31.40;49.90;;;;;;5024242;28;20447;-72
2022/09/07 12:29:00;;;;;;;7.57;4.30;;;30.90;50.60;;;;;;5028552;28;20277;-74
2022/09/07 12:31:46;;;;;;;7.10;4.10;;;29.60;53.70;;;;;;5025894;28;20531;-76
2022/09/07 12:34:32;;;;;;;10.40;4.30;;;29.00;55.00;;;;;;5005770;28;20198;-74
2022/09/07 12:37:02;;;;;;;8.47;4.10;;;28.60;55.70;;;;;;5029884;28;20859;-72
2022/09/07 12:39:36;;;;;;;7.17;3.60;;;28.50;55.70;;;;;;5029613;28;20455;-76
2022/09/07 12:42:04;;;;;;;5.90;3.97;;;28.30;56.40;;;;;;5028818;28;20427;-73
2022/09/07 12:44:31;;;;;;;7.43;3.80;;;28.30;55.20;;;;;;5022587;28;20479;-73
2022/09/07 12:46:59;;;;;;;8.10;3.20;;;28.30;53.60;;;;;;5030855;28;20473;-74
2022/09/07 12:49:43;;;;;;;5.53;3.60;;;28.20;52.90;;;;;;5013066;28;20432;-72
2022/09/07 12:52:44;;;;;;;4.80;3.63;;;28.80;52.60;;;;;;5026384;28;20580;-74
2022/09/07 12:55:11;;;;;;;3.63;2.97;;;28.80;51.20;;;;;;5021816;28;20669;-72
2022/09/07 12:57:57;;;;;;;11.27;3.70;;;28.80;51.70;;;;;;5028751;28;20446;-75
2022/09/07 13:00:49;;;;;;;5.57;3.30;;;29.40;51.20;;;;;;5030503;28;20422;-73
2022/09/07 13:03:21;;;;;;;8.60;3.37;;;29.40;52.00;;;;;;5020492;28;20482;-76
2022/09/07 13:06:18;;;;;;;11.27;4.77;;;29.60;50.90;;;;;;5025755;28;20435;-72
2022/09/07 13:09:15;;;;;;;7.67;2.97;;;29.40;50.60;;;;;;5026978;28;20458;-72
2022/09/07 13:11:41;;;;;;;5.63;3.43;;;29.00;51.80;;;;;;5022250;28;20513;-72
2022/09/07 13:14:12;;;;;;;14.77;4.70;;;29.10;51.70;;;;;;5006119;28;20582;-71